Zeus — V2OR — position and weather

sailwx.info

Track history (hours):
 
Tides and Currents Weather Stations Pressure Air Temp Water Temp Dewpoint Dewpoint Depression Visibility Wind Speed Wind Dir Waves Ship Positions

Zeus

Last reported at 2014-Nov-23 06:20 UTC. Time now 2014-Nov-24 20:25 UTC.
Position N 37°25' E 009°58'.

Length 90 m; draft 4.6 m.

Type: Cargo ship. MMSI: 304011025.

Date/timePositionNaut miles runAvg speedWind from/ knotsBaromVisibWave heightAir tempDewpointWater temp
2014-Nov-23 06:20N 37°25' E 009°58'14 3.8
2014-Nov-23 02:33N 37°25' E 009°40'  
2014-Nov-20 18:11N 36°38' E 000°11'7 9.7
2014-Nov-20 17:25N 36°37' E 000°02'258 8.8
2014-Nov-19 12:10N 36°04' W 005°16'6 1.2
2014-Nov-19 07:20N 36°07' W 005°22'3 4.4
2014-Nov-19 06:33N 36°03' W 005°22'7 7.5
2014-Nov-19 05:33N 35°58' W 005°28'  
2014-Nov-13 17:12N 50°19' W 004°10'3 4.7
2014-Nov-13 16:34N 50°22' W 004°07'0 0.1
2014-Nov-13 15:33N 50°22' W 004°08'0 0.0
2014-Nov-13 14:33N 50°22' W 004°08'0 0.0
2014-Nov-13 13:33N 50°22' W 004°08'0 0.0
2014-Nov-13 12:33N 50°22' W 004°08'0 0.0
2014-Nov-13 11:33N 50°22' W 004°08'0 0.0
2014-Nov-13 10:33N 50°22' W 004°08'0 0.0
2014-Nov-13 09:30N 50°22' W 004°08'0 0.0
2014-Nov-13 08:33N 50°22' W 004°08'0 0.0
2014-Nov-13 07:32N 50°22' W 004°08'0 0.0
2014-Nov-13 06:32N 50°22' W 004°08'  
Track history (hours):
 
Tides and Currents Weather Stations Pressure Air Temp Water Temp Dewpoint Dewpoint Depression Visibility Wind Speed Wind Dir Waves Ship Positions

Zeus

Last reported at 2014-Nov-23 06:20 UTC. Time now 2014-Nov-24 20:25 UTC.
Position N 37°25' E 009°58'.

Length 90 m; draft 4.6 m.

Type: Cargo ship. MMSI: 304011025.

Date/timePositionNaut miles runAvg speedWind from/ knotsBaromVisibWave heightAir tempDewpointWater temp
2014-Nov-23 06:20N 37°25' E 009°58'14 3.8
2014-Nov-23 02:33N 37°25' E 009°40'  
2014-Nov-20 18:11N 36°38' E 000°11'7 9.7
2014-Nov-20 17:25N 36°37' E 000°02'258 8.8
2014-Nov-19 12:10N 36°04' W 005°16'6 1.2
2014-Nov-19 07:20N 36°07' W 005°22'3 4.4
2014-Nov-19 06:33N 36°03' W 005°22'7 7.5
2014-Nov-19 05:33N 35°58' W 005°28'  
2014-Nov-13 17:12N 50°19' W 004°10'3 4.7
2014-Nov-13 16:34N 50°22' W 004°07'0 0.1
2014-Nov-13 15:33N 50°22' W 004°08'0 0.0
2014-Nov-13 14:33N 50°22' W 004°08'0 0.0
2014-Nov-13 13:33N 50°22' W 004°08'0 0.0
2014-Nov-13 12:33N 50°22' W 004°08'0 0.0
2014-Nov-13 11:33N 50°22' W 004°08'0 0.0
2014-Nov-13 10:33N 50°22' W 004°08'0 0.0
2014-Nov-13 09:30N 50°22' W 004°08'0 0.0
2014-Nov-13 08:33N 50°22' W 004°08'0 0.0
2014-Nov-13 07:32N 50°22' W 004°08'0 0.0
2014-Nov-13 06:32N 50°22' W 004°08'  

Dump ship's entire track history